Time;durP1;ratioP1;P1;durP2;ratioP2;P2;SDS_P1;SDS_P2;PMS_P1;PMS_P2;Temp;Humidity;BMP_temperature;BMP_pressure;BME280_temperature;BME280_humidity;BME280_pressure;Samples;Min_cycle;Max_cycle;Signal;HPM_P1;HPM_P2
2022/11/09 00:01:44;;;;;;;462.02;416.48;;;;;;;3.77;100.00;98154.41;7385433;19;20485;-58
2022/11/09 00:04:17;;;;;;;463.60;418.10;;;;;;;3.59;100.00;98145.50;7385825;19;20729;-50
2022/11/09 00:06:53;;;;;;;432.42;388.25;;;;;;;3.36;100.00;98140.19;7385834;19;20541;-49
2022/11/09 00:09:28;;;;;;;429.70;384.35;;;;;;;3.68;100.00;98147.75;7380880;19;20355;-50
2022/11/09 00:12:03;;;;;;;415.45;371.73;;;;;;;3.50;100.00;98152.75;7387704;19;20465;-53
2022/11/09 00:14:37;;;;;;;414.98;371.20;;;;;;;3.44;100.00;98148.59;7381119;19;20358;-58
2022/11/09 00:17:10;;;;;;;421.30;377.55;;;;;;;3.43;100.00;98152.06;7387255;19;20014;-50
2022/11/09 00:19:44;;;;;;;424.83;381.00;;;;;;;3.65;100.00;98141.84;7385028;19;20010;-49
2022/11/09 00:22:17;;;;;;;460.92;414.73;;;;;;;4.04;100.00;98146.53;7381246;19;20007;-51
2022/11/09 00:24:53;;;;;;;445.23;400.58;;;;;;;3.43;100.00;98144.28;7387146;19;20015;-48
2022/11/09 00:27:26;;;;;;;459.73;413.30;;;;;;;3.46;100.00;98145.91;7384718;19;20034;-59
2022/11/09 00:29:59;;;;;;;412.85;369.30;;;;;;;3.08;100.00;98135.94;7386099;19;20588;-49
2022/11/09 00:32:33;;;;;;;420.10;376.02;;;;;;;3.31;100.00;98149.03;7383778;19;20018;-51
2022/11/09 00:35:06;;;;;;;428.48;383.20;;;;;;;3.55;100.00;98150.84;7378713;19;20395;-48
2022/11/09 00:37:41;;;;;;;422.30;378.05;;;;;;;3.55;100.00;98137.84;7385305;19;20011;-53
2022/11/09 00:40:19;;;;;;;424.65;380.35;;;;;;;3.83;100.00;98143.84;7383521;19;20015;-59
2022/11/09 00:42:53;;;;;;;420.60;376.65;;;;;;;4.05;100.00;98129.16;7385957;19;20027;-49
2022/11/09 00:45:26;;;;;;;454.65;410.08;;;;;;;3.21;100.00;98139.84;7385611;19;20515;-48
2022/11/09 00:47:59;;;;;;;478.42;431.80;;;;;;;3.37;100.00;98144.50;7379847;19;20343;-49
2022/11/09 00:50:32;;;;;;;438.63;393.95;;;;;;;3.55;100.00;98132.63;7384093;19;20010;-50
2022/11/09 00:53:06;;;;;;;429.55;385.05;;;;;;;3.25;100.00;98131.06;7380740;19;20015;-59
2022/11/09 00:55:42;;;;;;;423.52;379.75;;;;;;;3.46;100.00;98126.00;7386138;19;20034;-47
2022/11/09 00:58:16;;;;;;;427.55;383.40;;;;;;;3.58;100.00;98125.56;7383989;19;20462;-48
2022/11/09 01:00:50;;;;;;;443.00;397.50;;;;;;;3.95;100.00;98123.44;7379055;19;20014;-52
2022/11/09 01:03:24;;;;;;;426.55;382.67;;;;;;;4.35;100.00;98125.47;7383622;19;20014;-48
2022/11/09 01:05:58;;;;;;;459.83;414.55;;;;;;;4.04;100.00;98130.91;7381938;19;20006;-51
2022/11/09 01:08:31;;;;;;;439.33;395.08;;;;;;;4.54;100.00;98122.09;7384907;19;20018;-52
2022/11/09 01:11:11;;;;;;;430.77;387.27;;;;;;;4.60;100.00;98131.44;7383331;19;20020;-53
2022/11/09 01:13:45;;;;;;;436.85;392.63;;;;;;;4.84;100.00;98130.50;7384031;19;20011;-52
2022/11/09 01:16:20;;;;;;;439.13;395.25;;;;;;;5.03;100.00;98126.28;7384211;19;20474;-52
2022/11/09 01:18:57;;;;;;;440.20;395.15;;;;;;;5.04;100.00;98127.97;7377783;19;20015;-52
2022/11/09 01:21:31;;;;;;;;;;;;;;;5.06;100.00;98131.38;7385488;19;20011;-53
2022/11/09 01:24:06;;;;;;;458.83;413.80;;;;;;;5.26;100.00;98126.19;7382823;19;20301;-58
2022/11/09 01:26:42;;;;;;;459.30;414.92;;;;;;;5.32;100.00;98118.16;7386481;19;20484;-48
2022/11/09 01:29:15;;;;;;;426.52;383.48;;;;;;;5.53;100.00;98114.66;7384499;19;20015;-52
2022/11/09 01:31:49;;;;;;;448.75;403.55;;;;;;;5.14;100.00;98121.50;7378000;19;20034;-50
2022/11/09 01:34:22;;;;;;;433.50;389.90;;;;;;;5.29;100.00;98120.88;7382518;19;20042;-50
2022/11/09 01:36:56;;;;;;;445.65;401.65;;;;;;;5.42;100.00;98103.81;7380352;19;20010;-59
2022/11/09 01:39:29;;;;;;;453.80;409.88;;;;;;;5.38;100.00;98102.25;7382725;19;20018;-52
2022/11/09 01:42:05;;;;;;;470.58;425.35;;;;;;;5.43;100.00;98109.88;7384938;19;20017;-49
2022/11/09 01:44:40;;;;;;;480.52;434.05;;;;;;;5.45;100.00;98095.84;7381020;19;20498;-49
2022/11/09 01:47:23;;;;;;;476.45;430.75;;;;;;;5.54;100.00;98097.22;7385691;19;20038;-53
2022/11/09 01:50:01;;;;;;;457.38;412.13;;;;;;;5.50;100.00;98098.28;7375450;19;20029;-52
2022/11/09 01:52:37;;;;;;;443.80;400.15;;;;;;;5.53;100.00;98087.72;7381116;19;20021;-49
2022/11/09 01:55:20;;;;;;;458.45;413.25;;;;;;;5.72;100.00;98075.59;7374480;19;20049;-52
2022/11/09 01:58:00;;;;;;;442.23;398.55;;;;;;;5.66;100.00;98078.47;7381586;19;20400;-49
2022/11/09 02:00:36;;;;;;;482.17;435.95;;;;;;;6.09;100.00;98078.28;7376064;19;20007;-52
2022/11/09 02:03:13;;;;;;;458.38;414.33;;;;;;;6.05;100.00;98072.38;7382697;19;20011;-49
2022/11/09 02:05:49;;;;;;;453.38;408.92;;;;;;;5.94;100.00;98074.59;7378948;19;20488;-57
2022/11/09 02:08:25;;;;;;;453.42;408.17;;;;;;;6.00;100.00;98068.25;7385882;19;20480;-48
2022/11/09 02:11:06;;;;;;;453.77;408.95;;;;;;;6.11;100.00;98066.03;7389001;19;20033;-52
2022/11/09 02:13:44;;;;;;;454.60;409.77;;;;;;;6.04;100.00;98060.25;7389590;19;20014;-52
2022/11/09 02:16:19;;;;;;;444.20;400.08;;;;;;;6.28;100.00;98063.53;7390505;19;20010;-52
2022/11/09 02:18:57;;;;;;;453.15;407.55;;;;;;;6.15;100.00;98055.34;7387101;19;20015;-52
2022/11/09 02:21:36;;;;;;;468.13;422.98;;;;;;;6.08;100.00;98042.66;7390050;19;20463;-50
2022/11/09 02:24:10;;;;;;;475.95;429.33;;;;;;;6.39;100.00;98056.91;7384322;19;20349;-49
2022/11/09 02:26:49;;;;;;;471.50;425.95;;;;;;;6.38;100.00;98065.66;7393027;19;20024;-54
2022/11/09 02:29:29;;;;;;;457.90;413.02;;;;;;;6.22;100.00;98051.59;7386541;19;20038;-58
2022/11/09 02:32:07;;;;;;;436.90;393.52;;;;;;;6.10;100.00;98049.50;7390525;19;20023;-54
2022/11/09 02:34:43;;;;;;;432.83;389.38;;;;;;;6.26;100.00;98055.75;7384477;19;20374;-57
2022/11/09 02:37:29;;;;;;;432.17;388.92;;;;;;;6.20;100.00;98031.66;7389417;19;20010;-49
2022/11/09 02:40:06;;;;;;;425.80;382.25;;;;;;;6.28;100.00;98043.50;7386742;19;20015;-58
2022/11/09 02:42:39;;;;;;;453.10;408.48;;;;;;;6.23;100.00;98040.25;7390800;19;20010;-54
2022/11/09 02:45:14;;;;;;;461.35;416.15;;;;;;;6.11;100.00;98037.31;7389198;19;20015;-51
2022/11/09 02:47:48;;;;;;;464.42;418.38;;;;;;;6.27;100.00;98047.03;7385565;19;20074;-57
2022/11/09 02:50:22;;;;;;;435.23;391.45;;;;;;;6.37;100.00;98052.66;7387591;19;20014;-51
2022/11/09 02:52:58;;;;;;;439.13;394.30;;;;;;;6.17;100.00;98050.06;7382281;19;20011;-56
2022/11/09 02:55:32;;;;;;;433.65;389.80;;;;;;;6.21;100.00;98036.84;7387237;19;20482;-49
2022/11/09 02:58:06;;;;;;;438.17;393.77;;;;;;;6.32;100.00;98038.97;7388420;19;20045;-52
2022/11/09 03:00:40;;;;;;;444.90;400.08;;;;;;;6.21;100.00;98039.47;7389303;19;20313;-52
2022/11/09 03:03:14;;;;;;;463.20;418.02;;;;;;;6.31;100.00;98050.31;7388250;19;20016;-50
2022/11/09 03:05:49;;;;;;;491.23;444.75;;;;;;;6.18;100.00;98055.22;7383726;19;20178;-48
2022/11/09 03:08:26;;;;;;;478.27;433.05;;;;;;;6.01;100.00;98044.72;7386720;19;20018;-51
2022/11/09 03:10:59;;;;;;;462.30;417.15;;;;;;;6.08;100.00;98048.75;7384125;19;20126;-59
2022/11/09 03:13:32;;;;;;;451.13;407.38;;;;;;;5.96;100.00;98048.44;7385968;19;20477;-48
2022/11/09 03:16:10;;;;;;;450.17;406.52;;;;;;;5.98;100.00;98060.50;7387133;19;20045;-53
2022/11/09 03:18:46;;;;;;;451.85;406.95;;;;;;;5.90;100.00;98046.09;7381800;19;20014;-53
2022/11/09 03:21:20;;;;;;;435.85;392.55;;;;;;;6.26;100.00;98053.13;7387783;19;20112;-52
2022/11/09 03:23:56;;;;;;;485.08;438.60;;;;;;;5.96;100.00;98051.88;7383371;19;20033;-57
2022/11/09 03:26:30;;;;;;;465.98;420.88;;;;;;;6.15;100.00;98049.31;7387096;19;20028;-51
2022/11/09 03:29:04;;;;;;;464.70;419.48;;;;;;;6.22;100.00;98046.38;7386719;19;20006;-53
2022/11/09 03:31:38;;;;;;;476.63;430.02;;;;;;;5.94;100.00;98055.47;7384459;19;20107;-48
2022/11/09 03:34:15;;;;;;;440.92;397.17;;;;;;;5.99;100.00;98054.34;7386061;19;20123;-52
2022/11/09 03:36:49;;;;;;;445.73;401.00;;;;;;;6.02;100.00;98051.63;7381331;19;20002;-55
2022/11/09 03:39:27;;;;;;;436.05;392.15;;;;;;;5.96;100.00;98036.22;7385801;19;20018;-52
2022/11/09 03:42:00;;;;;;;442.15;398.08;;;;;;;5.90;100.00;98049.56;7385262;19;20011;-59
2022/11/09 03:44:34;;;;;;;485.95;439.95;;;;;;;5.87;100.00;98049.69;7386906;19;20007;-49
2022/11/09 03:47:07;;;;;;;485.42;438.77;;;;;;;6.04;100.00;98044.59;7388261;19;20007;-50
2022/11/09 03:49:40;;;;;;;467.90;421.60;;;;;;;6.09;100.00;98033.91;7381312;19;20371;-50
2022/11/09 03:52:13;;;;;;;446.63;402.88;;;;;;;6.11;100.00;98045.16;7386655;19;20074;-50
2022/11/09 03:54:49;;;;;;;447.40;404.23;;;;;;;5.92;100.00;98028.63;7383606;19;20015;-53
2022/11/09 03:57:22;;;;;;;444.35;400.73;;;;;;;6.06;100.00;98034.91;7388175;19;20033;-50
2022/11/09 03:59:56;;;;;;;444.50;400.75;;;;;;;6.13;100.00;98015.44;7384675;19;20013;-52
2022/11/09 04:02:29;;;;;;;453.23;408.08;;;;;;;6.05;100.00;98033.22;7378668;19;20034;-49
2022/11/09 04:05:03;;;;;;;465.13;420.25;;;;;;;6.16;100.00;98023.13;7386837;19;20007;-54
2022/11/09 04:07:37;;;;;;;470.75;425.65;;;;;;;6.09;100.00;98026.06;7385732;19;20362;-51
2022/11/09 04:10:13;;;;;;;475.92;429.77;;;;;;;6.10;100.00;98023.41;7384793;19;21233;-49
2022/11/09 04:12:47;;;;;;;443.20;399.85;;;;;;;6.13;100.00;98019.78;7387045;19;20037;-53
2022/11/09 04:15:20;;;;;;;463.75;418.88;;;;;;;6.33;100.00;98023.22;7377435;19;20078;-54
2022/11/09 04:18:01;;;;;;;443.48;400.13;;;;;;;6.29;100.00;98019.06;7386948;19;19998;-53
2022/11/09 04:20:36;;;;;;;450.63;406.10;;;;;;;6.49;100.00;98018.13;7382543;19;20014;-52
2022/11/09 04:23:11;;;;;;;444.90;401.10;;;;;;;6.28;100.00;98020.00;7386345;19;20088;-51
2022/11/09 04:25:48;;;;;;;469.20;424.35;;;;;;;6.32;100.00;98025.91;7384654;19;20010;-50
2022/11/09 04:28:25;;;;;;;473.25;428.48;;;;;;;6.32;100.00;98013.69;7384702;19;20023;-50
2022/11/09 04:30:58;;;;;;;472.17;426.80;;;;;;;6.26;100.00;98021.81;7385785;19;20007;-52
2022/11/09 04:33:31;;;;;;;474.58;427.83;;;;;;;6.33;100.00;98023.22;7379575;19;20017;-53
2022/11/09 04:36:08;;;;;;;449.05;405.33;;;;;;;6.34;100.00;98029.31;7385388;19;20082;-49
2022/11/09 04:38:41;;;;;;;460.15;416.17;;;;;;;6.29;100.00;98020.84;7384844;19;20540;-58
2022/11/09 04:41:17;;;;;;;455.73;411.77;;;;;;;6.25;100.00;98016.69;7388066;19;20102;-54
2022/11/09 04:43:50;;;;;;;448.05;403.92;;;;;;;6.34;100.00;98018.84;7384365;19;20034;-50
2022/11/09 04:46:23;;;;;;;491.70;444.48;;;;;;;6.21;100.00;98023.78;7381922;19;20010;-54
2022/11/09 04:48:57;;;;;;;470.17;425.02;;;;;;;6.19;100.00;98009.94;7383934;19;20056;-52
2022/11/09 04:51:30;;;;;;;471.85;426.50;;;;;;;6.40;100.00;98014.19;7383669;19;20026;-52
2022/11/09 04:54:03;;;;;;;473.13;427.38;;;;;;;6.47;100.00;98017.38;7383680;19;20105;-54
2022/11/09 04:56:41;;;;;;;472.70;427.70;;;;;;;6.30;100.00;98019.91;7387195;19;20015;-54
2022/11/09 04:59:15;;;;;;;487.73;440.25;;;;;;;6.34;100.00;98006.66;7381761;19;20014;-52
2022/11/09 05:01:48;;;;;;;468.38;423.17;;;;;;;6.41;100.00;98005.47;7385300;19;20126;-54
2022/11/09 05:04:24;;;;;;;477.63;431.52;;;;;;;6.32;100.00;98015.44;7379221;19;20010;-59
2022/11/09 05:06:57;;;;;;;471.05;426.00;;;;;;;6.45;100.00;98017.44;7385721;19;20468;-55
2022/11/09 05:09:30;;;;;;;475.92;430.77;;;;;;;6.40;100.00;98003.75;7384991;19;20010;-52
2022/11/09 05:12:06;;;;;;;503.75;455.23;;;;;;;6.31;100.00;98016.38;7377153;19;20010;-49
2022/11/09 05:14:39;;;;;;;495.85;448.27;;;;;;;6.38;100.00;98023.88;7386336;19;20010;-51
2022/11/09 05:17:13;;;;;;;495.23;447.13;;;;;;;6.24;100.00;98018.44;7382173;19;20007;-51
2022/11/09 05:19:46;;;;;;;497.55;449.80;;;;;;;6.17;100.00;98027.44;7382935;19;20011;-53
2022/11/09 05:25:11;;;;;;;504.33;454.88;;;;;;;6.46;100.00;98013.91;7381857;19;20021;-53
2022/11/09 05:27:47;;;;;;;509.77;460.08;;;;;;;6.17;100.00;98014.38;7381721;19;20002;-51
2022/11/09 05:30:21;;;;;;;529.47;476.35;;;;;;;6.30;100.00;98007.72;7379966;19;20893;-51
2022/11/09 05:32:55;;;;;;;491.88;443.63;;;;;;;6.41;100.00;98002.00;7381048;19;20525;-49
2022/11/09 05:35:28;;;;;;;505.38;455.73;;;;;;;6.38;100.00;98013.44;7374159;19;20522;-52
2022/11/09 05:38:01;;;;;;;497.20;448.75;;;;;;;6.14;100.00;98017.13;7377001;19;20377;-50
2022/11/09 05:40:35;;;;;;;518.00;468.02;;;;;;;6.53;100.00;98014.47;7376607;19;20028;-55
2022/11/09 05:43:10;;;;;;;535.70;483.45;;;;;;;6.31;100.00;98012.03;7377358;19;20014;-50
2022/11/09 05:45:44;;;;;;;546.72;496.83;;;;;;;6.35;100.00;98026.63;7385761;19;21121;-51
2022/11/09 05:48:18;;;;;;;543.90;493.33;;;;;;;6.68;100.00;98022.44;7377562;19;20026;-49
2022/11/09 05:50:51;;;;;;;529.03;479.70;;;;;;;6.56;100.00;98025.63;7385348;19;20383;-52
2022/11/09 05:53:30;;;;;;;510.80;462.42;;;;;;;6.36;100.00;98032.69;7385586;19;20018;-56
2022/11/09 05:56:08;;;;;;;506.20;458.27;;;;;;;6.24;100.00;98025.41;7384516;19;20663;-48
2022/11/09 05:58:43;;;;;;;;;;;;;;;6.33;100.00;98041.50;7386630;19;20428;-48
2022/11/09 06:01:19;;;;;;;499.63;450.40;;;;;;;6.41;100.00;98025.50;7382819;19;20351;-50
2022/11/09 06:03:52;;;;;;;482.58;435.65;;;;;;;6.54;100.00;98032.69;7390617;19;20094;-51
2022/11/09 06:06:25;;;;;;;494.58;445.95;;;;;;;6.73;100.00;98032.66;7386139;19;20010;-60
2022/11/09 06:08:59;;;;;;;499.90;451.92;;;;;;;6.74;100.00;98040.44;7387224;19;20403;-49
2022/11/09 06:11:32;;;;;;;492.23;444.80;;;;;;;6.83;100.00;98036.50;7389646;19;20009;-55
2022/11/09 06:14:07;;;;;;;502.77;453.10;;;;;;;6.47;100.00;98026.03;7382092;19;20062;-52
2022/11/09 06:16:42;;;;;;;479.73;432.38;;;;;;;6.56;100.00;98035.22;7386619;19;20011;-50
2022/11/09 06:19:15;;;;;;;529.28;479.83;;;;;;;6.91;100.00;98047.44;7384264;19;20029;-59
2022/11/09 06:21:49;;;;;;;500.73;452.73;;;;;;;6.75;100.00;98041.28;7390036;19;20023;-52
2022/11/09 06:24:22;;;;;;;492.98;444.92;;;;;;;6.97;100.00;98031.47;7389454;19;20014;-51
2022/11/09 06:26:55;;;;;;;510.85;461.38;;;;;;;6.90;100.00;98038.78;7385035;19;20403;-56
2022/11/09 06:29:31;;;;;;;504.70;456.50;;;;;;;6.93;100.00;98035.16;7387400;19;20035;-55
2022/11/09 06:32:05;;;;;;;511.23;462.88;;;;;;;7.00;100.00;98034.81;7383990;19;20497;-56
2022/11/09 06:34:38;;;;;;;504.30;456.35;;;;;;;7.11;100.00;98029.91;7390911;19;20066;-54
2022/11/09 06:37:12;;;;;;;499.55;451.77;;;;;;;6.97;100.00;98029.72;7386489;19;20022;-53
2022/11/09 06:39:46;;;;;;;512.45;463.25;;;;;;;6.94;100.00;98029.00;7383463;19;20006;-51
2022/11/09 06:42:19;;;;;;;508.10;460.40;;;;;;;6.83;100.00;98028.69;7390394;19;20037;-52
2022/11/09 06:44:55;;;;;;;490.83;444.02;;;;;;;6.74;100.00;98024.75;7386558;19;20006;-59
2022/11/09 06:47:28;;;;;;;500.00;452.65;;;;;;;7.06;100.00;98025.81;7389322;19;20038;-52
2022/11/09 06:50:02;;;;;;;487.40;440.90;;;;;;;6.91;100.00;98019.56;7387774;19;20021;-50
2022/11/09 06:52:35;;;;;;;497.10;449.58;;;;;;;6.88;100.00;98027.53;7382729;19;20011;-54
2022/11/09 06:55:09;;;;;;;487.27;440.15;;;;;;;7.04;100.00;98011.97;7385118;19;20823;-52
2022/11/09 06:57:42;;;;;;;483.95;437.75;;;;;;;7.05;100.00;98019.72;7384294;19;20521;-60
2022/11/09 07:00:20;;;;;;;487.48;440.65;;;;;;;7.02;100.00;98024.25;7388315;19;20014;-53
2022/11/09 07:02:53;;;;;;;478.98;433.33;;;;;;;7.10;100.00;98030.78;7387993;19;20070;-50
2022/11/09 07:05:26;;;;;;;498.17;451.05;;;;;;;6.93;100.00;98024.72;7384469;19;20086;-52
2022/11/09 07:07:59;;;;;;;480.75;435.33;;;;;;;7.11;100.00;98019.44;7387760;19;20017;-53
2022/11/09 07:10:33;;;;;;;494.85;448.88;;;;;;;7.21;100.00;98025.88;7384263;19;20350;-54
2022/11/09 07:13:09;;;;;;;495.25;448.60;;;;;;;7.06;100.00;98020.59;7388096;19;20097;-52
2022/11/09 07:15:45;;;;;;;506.45;458.77;;;;;;;7.11;100.00;98008.97;7387833;19;20038;-49
2022/11/09 07:18:19;;;;;;;501.95;453.63;;;;;;;7.46;100.00;98001.94;7386664;19;20007;-52
2022/11/09 07:20:52;;;;;;;483.95;436.70;;;;;;;7.31;100.00;98005.34;7386268;19;20007;-52
2022/11/09 07:23:25;;;;;;;502.73;453.98;;;;;;;7.67;100.00;98016.56;7383298;19;20010;-60
2022/11/09 07:25:59;;;;;;;491.60;445.27;;;;;;;7.53;100.00;98003.34;7387602;19;20013;-53
2022/11/09 07:28:32;;;;;;;479.40;432.85;;;;;;;7.46;100.00;98002.81;7386474;19;20014;-49
2022/11/09 07:31:08;;;;;;;509.88;460.77;;;;;;;7.91;100.00;98010.88;7382426;19;20027;-51
2022/11/09 07:33:41;;;;;;;502.40;454.65;;;;;;;7.70;100.00;97996.31;7386466;19;20375;-50
2022/11/09 07:36:15;;;;;;;496.23;447.98;;;;;;;7.66;100.00;98001.78;7382293;19;20018;-59
2022/11/09 07:38:50;;;;;;;515.00;465.98;;;;;;;7.81;100.00;97994.00;7387217;19;20018;-50
2022/11/09 07:41:23;;;;;;;514.45;465.40;;;;;;;7.61;100.00;97999.41;7386609;19;20064;-53
2022/11/09 07:43:57;;;;;;;511.02;461.92;;;;;;;7.97;100.00;97996.63;7381741;19;20010;-50
2022/11/09 07:46:34;;;;;;;504.92;456.35;;;;;;;7.73;100.00;97980.44;7385397;19;20021;-53
2022/11/09 07:49:07;;;;;;;528.60;477.42;;;;;;;7.73;100.00;98006.63;7378347;19;20025;-52
2022/11/09 07:51:41;;;;;;;511.15;462.08;;;;;;;8.05;100.00;98003.19;7387687;19;20014;-49
2022/11/09 07:54:15;;;;;;;505.55;455.95;;;;;;;7.74;100.00;97997.84;7387936;19;20164;-50
2022/11/09 07:56:48;;;;;;;525.33;474.65;;;;;;;8.00;100.00;97992.09;7383224;19;20033;-51
2022/11/09 07:59:21;;;;;;;501.15;452.40;;;;;;;7.80;100.00;97996.69;7387174;19;20011;-51
2022/11/09 08:01:57;;;;;;;486.15;438.20;;;;;;;8.12;100.00;97991.47;7380147;19;20006;-59
2022/11/09 08:04:30;;;;;;;492.73;444.27;;;;;;;8.03;100.00;97985.84;7386266;19;20031;-50
2022/11/09 08:07:03;;;;;;;496.42;447.70;;;;;;;8.31;100.00;97992.16;7382730;19;20014;-50
2022/11/09 08:09:36;;;;;;;492.05;443.77;;;;;;;8.31;100.00;97986.91;7383098;19;20014;-52
2022/11/09 08:12:10;;;;;;;490.20;443.05;;;;;;;8.29;100.00;97978.31;7384441;19;20077;-52
2022/11/09 08:14:43;;;;;;;498.60;451.27;;;;;;;8.33;100.00;97989.44;7380752;19;20451;-50
2022/11/09 08:17:21;;;;;;;474.55;427.80;;;;;;;8.36;100.00;97990.09;7384432;19;20035;-50
2022/11/09 08:19:55;;;;;;;495.23;448.25;;;;;;;8.38;100.00;97989.19;7388305;19;20015;-54
2022/11/09 08:22:29;;;;;;;508.30;459.02;;;;;;;8.57;100.00;97982.88;7383924;19;20018;-53
2022/11/09 08:25:04;;;;;;;539.08;486.27;;;;;;;8.65;100.00;97985.03;7386666;19;20037;-52
2022/11/09 08:27:40;;;;;;;554.13;498.45;;;;;;;8.81;100.00;97994.59;7380099;19;20078;-51
2022/11/09 08:30:17;;;;;;;514.10;464.50;;;;;;;8.69;100.00;98000.53;7385351;19;20002;-51
2022/11/09 08:32:54;;;;;;;513.50;463.52;;;;;;;8.62;100.00;97991.31;7383496;19;20015;-50
2022/11/09 08:35:29;;;;;;;;;;;;;;;8.79;100.00;97992.97;7387946;19;20015;-55
2022/11/09 08:38:05;;;;;;;530.42;479.67;;;;;;;8.71;100.00;97982.91;7384126;19;19915;-52
2022/11/09 08:40:39;;;;;;;542.33;490.45;;;;;;;8.70;100.00;97985.63;7386382;19;20053;-53
2022/11/09 08:43:14;;;;;;;594.58;533.38;;;;;;;8.75;100.00;97991.47;7387831;19;20019;-50
2022/11/09 08:45:47;;;;;;;632.05;565.45;;;;;;;8.78;100.00;97991.31;7383108;19;20034;-49
2022/11/09 08:48:23;;;;;;;624.95;558.40;;;;;;;8.81;100.00;97978.00;7379035;19;20011;-50
2022/11/09 08:50:59;;;;;;;625.85;558.90;;;;;;;8.81;100.00;97996.34;7382662;19;20010;-52
2022/11/09 08:53:34;;;;;;;624.90;557.75;;;;;;;8.64;100.00;97994.66;7379647;19;20026;-52
2022/11/09 08:56:07;;;;;;;596.75;534.95;;;;;;;8.67;100.00;97994.50;7385131;19;20051;-50
2022/11/09 08:58:41;;;;;;;623.30;557.30;;;;;;;8.88;100.00;98003.78;7377251;19;20023;-54
2022/11/09 09:01:16;;;;;;;596.10;533.65;;;;;;;8.91;100.00;98000.16;7383020;19;20493;-51
2022/11/09 09:03:51;;;;;;;580.78;522.95;;;;;;;8.95;100.00;98001.66;7382940;19;20367;-57
2022/11/09 09:06:24;;;;;;;607.67;544.58;;;;;;;8.82;100.00;98006.75;7384017;19;20034;-50
2022/11/09 09:08:58;;;;;;;546.13;492.30;;;;;;;9.01;100.00;98003.94;7382795;19;20031;-54
2022/11/09 09:11:31;;;;;;;582.00;523.75;;;;;;;9.20;100.00;98007.19;7380094;19;20080;-50
2022/11/09 09:14:04;;;;;;;569.13;512.80;;;;;;;9.08;100.00;98000.03;7383044;19;20013;-51
2022/11/09 09:16:38;;;;;;;582.33;524.10;;;;;;;9.04;100.00;98004.59;7386166;19;20081;-49
2022/11/09 09:19:14;;;;;;;528.80;478.20;;;;;;;9.40;100.00;98006.88;7391444;19;21084;-49
2022/11/09 09:21:47;;;;;;;535.88;485.15;;;;;;;9.18;100.00;98015.16;7394146;19;20002;-52
2022/11/09 09:24:20;;;;;;;599.78;542.10;;;;;;;9.06;100.00;98017.63;7387876;19;20010;-50
2022/11/09 09:26:53;;;;;;;606.75;543.50;;;;;;;9.26;100.00;98022.59;7391037;19;20368;-53
2022/11/09 09:29:27;;;;;;;569.03;515.08;;;;;;;9.06;100.00;98020.25;7390770;19;20024;-51
2022/11/09 09:32:00;;;;;;;532.88;481.48;;;;;;;9.16;100.00;98018.81;7392258;19;20056;-51
2022/11/09 09:34:36;;;;;;;497.85;448.65;;;;;;;9.27;100.00;98021.66;7391938;19;20358;-49
2022/11/09 09:37:09;;;;;;;510.67;458.95;;;;;;;9.18;100.00;98038.75;7385018;19;20014;-55
2022/11/09 09:39:42;;;;;;;489.38;439.92;;;;;;;9.28;100.00;98028.59;7391985;19;20481;-49
2022/11/09 09:42:22;;;;;;;500.08;449.75;;;;;;;9.54;100.00;98030.53;7393128;19;20018;-50
2022/11/09 09:44:59;;;;;;;492.27;443.13;;;;;;;9.33;100.00;98026.56;7392949;19;20042;-49
2022/11/09 09:47:48;;;;;;;500.52;451.13;;;;;;;9.48;100.00;98034.38;7391446;19;20014;-51
2022/11/09 09:50:27;;;;;;;488.45;440.17;;;;;;;9.38;100.00;98029.75;7388241;19;20470;-49
2022/11/09 09:53:05;;;;;;;490.90;442.70;;;;;;;9.37;100.00;98022.81;7391232;19;20030;-59
2022/11/09 09:55:43;;;;;;;606.08;548.83;;;;;;;9.30;100.00;98024.09;7390677;19;20417;-53
2022/11/09 09:58:19;;;;;;;563.08;509.95;;;;;;;9.23;100.00;98031.47;7386325;19;20007;-54
2022/11/09 10:00:53;;;;;;;555.30;502.90;;;;;;;9.47;100.00;98039.69;7389413;19;20011;-49
2022/11/09 10:03:29;;;;;;;545.30;494.60;;;;;;;9.37;100.00;98035.94;7388170;19;20006;-52
2022/11/09 10:06:13;;;;;;;511.60;461.48;;;;;;;9.56;100.00;98028.69;7382163;19;20500;-53
2022/11/09 10:08:57;;;;;;;505.08;455.75;;;;;;;9.61;100.00;98026.66;7388128;19;20021;-50
2022/11/09 10:11:40;;;;;;;525.22;473.17;;;;;;;9.58;100.00;98030.28;7387181;19;20040;-54
2022/11/09 10:14:33;;;;;;;493.45;444.33;;;;;;;9.50;100.00;98035.13;7388243;19;20457;-50
2022/11/09 10:17:17;;;;;;;509.73;458.92;;;;;;;9.47;100.00;98030.06;7388754;19;20010;-49
2022/11/09 10:20:01;;;;;;;494.13;445.02;;;;;;;9.69;100.00;98035.78;7384235;19;20017;-53
2022/11/09 10:22:47;;;;;;;510.80;460.10;;;;;;;9.63;100.00;98033.50;7390406;19;20086;-53
2022/11/09 10:25:25;;;;;;;509.63;458.40;;;;;;;9.81;100.00;98042.09;7385854;19;20015;-50
2022/11/09 10:28:01;;;;;;;490.30;440.58;;;;;;;9.68;100.00;98031.47;7385379;19;20007;-49
2022/11/09 10:30:37;;;;;;;500.63;448.75;;;;;;;9.71;100.00;98036.53;7380092;19;20038;-55
2022/11/09 10:33:21;;;;;;;497.48;446.85;;;;;;;9.80;100.00;98028.09;7387075;19;20074;-50
2022/11/09 10:36:03;;;;;;;503.08;452.88;;;;;;;9.94;100.00;98035.16;7383091;19;20018;-52
2022/11/09 10:38:45;;;;;;;496.67;447.05;;;;;;;9.94;100.00;98041.25;7382861;19;20007;-53
2022/11/09 10:41:45;;;;;;;509.80;460.08;;;;;;;9.87;100.00;98033.81;7387694;19;20006;-55
2022/11/09 10:44:36;;;;;;;521.05;469.48;;;;;;;10.05;100.00;98033.56;7380220;19;20031;-49
2022/11/09 10:47:28;;;;;;;545.05;492.75;;;;;;;9.92;100.00;98031.78;7388476;19;20074;-49
2022/11/09 10:50:30;;;;;;;561.30;507.33;;;;;;;9.73;100.00;98023.28;7385951;19;20022;-52
2022/11/09 10:53:23;;;;;;;477.48;428.77;;;;;;;10.06;100.00;98023.88;7382911;19;20011;-52
2022/11/09 10:56:22;;;;;;;518.42;466.75;;;;;;;10.31;100.00;98018.81;7382357;19;20014;-56
2022/11/09 10:59:52;;;;;;;501.65;451.02;;;;;;;10.48;100.00;98016.81;7388133;19;20003;-56
2022/11/09 11:02:50;;;;;;;532.20;480.17;;;;;;;10.12;100.00;98034.03;7381247;19;20002;-55
2022/11/09 11:05:43;;;;;;;528.85;477.23;;;;;;;10.24;100.00;98022.75;7386852;19;20014;-58
2022/11/09 11:08:43;;;;;;;492.17;442.23;;;;;;;10.21;100.00;98017.69;7385125;19;20477;-51
2022/11/09 11:11:39;;;;;;;500.02;450.48;;;;;;;10.17;100.00;98016.19;7387951;19;20014;-50
2022/11/09 11:14:37;;;;;;;525.97;475.35;;;;;;;10.39;100.00;98009.53;7381767;19;20012;-49
2022/11/09 11:17:41;;;;;;;510.20;460.63;;;;;;;10.30;100.00;98007.47;7383249;19;20011;-58
2022/11/09 11:20:36;;;;;;;513.65;464.33;;;;;;;10.64;100.00;98006.19;7390235;19;20014;-49
2022/11/09 11:23:29;;;;;;;643.05;576.45;;;;;;;10.49;100.00;98008.00;7388801;19;20027;-56
2022/11/09 11:26:37;;;;;;;646.40;579.85;;;;;;;10.70;100.00;98008.44;7383260;19;20026;-50
2022/11/09 11:29:56;;;;;;;562.58;507.33;;;;;;;10.50;100.00;97993.91;7381376;19;20014;-51
2022/11/09 11:32:48;;;;;;;511.63;460.25;;;;;;;10.62;100.00;98013.34;7386303;19;20046;-49
2022/11/09 11:35:55;;;;;;;496.25;445.90;;;;;;;10.47;100.00;98022.16;7384368;19;20047;-60
2022/11/09 11:38:56;;;;;;;505.90;455.13;;;;;;;10.47;100.00;98011.66;7381554;19;20018;-48
2022/11/09 11:42:08;;;;;;;493.25;443.15;;;;;;;10.56;100.00;98009.31;7387391;19;20048;-49
2022/11/09 11:45:20;;;;;;;520.45;468.60;;;;;;;10.56;100.00;98013.72;7386308;19;21283;-49
2022/11/09 11:48:44;;;;;;;530.72;477.40;;;;;;;10.54;100.00;98010.31;7384156;19;20379;-51
2022/11/09 11:51:46;;;;;;;486.73;436.95;;;;;;;10.52;100.00;98014.84;7384922;19;20393;-53